DW0993 Weather Reports


Display with metric or nautical units.
time (UTC)temp
F
wind
direction
speed
MPH
gust
MPH
rain 1hr
in
rain 24hr
in
rain mn
in
humidity
%
barometer
mb
20240301174501 29 188 5.0 18.0 0.00 0.00 0.00 89 1005.0
20240301173000 28 217 6.0 13.0 0.00 0.00 0.00 90 1005.2
20240301171600 27 198 12.0 22.0 0.00 0.00 0.00 86 1005.4
20240301170048 28 164 10.0 18.0 0.00 0.00 0.00 83 1005.0
20240301164551 28 212 12.0 18.0 0.00 0.00 0.00 84 1005.0
20240301163052 27 178 7.0 11.0 0.00 0.00 0.00 88 1005.1
20240301161551 27 259 9.0 19.0 0.00 0.00 0.00 89 1005.2
20240301160046 27 204 8.0 16.0 0.00 0.00 0.00 86 1005.2
20240301154558 27 218 12.0 18.0 0.00 0.00 0.00 87 1005.2
20240301153046 27 217 12.0 17.0 0.00 0.00 0.00 88 1005.2
20240301151546 27 214 10.0 17.0 0.00 0.00 0.00 87 1005.0
20240301150028 27 204 0.0 6.0 0.00 0.00 0.00 91 1005.0
20240301144528 26 207 4.0 8.0 0.00 0.00 0.00 91 1005.0
20240301143014 26 259 4.0 9.0 0.00 0.00 0.00 91 1005.2
20240301141513 26 228 3.0 9.0 0.00 0.00 0.00 90 1005.0
20240301140020 27 213 5.0 12.0 0.00 0.00 0.00 90 1005.1
20240301134514 26 215 5.0 9.0 0.00 0.00 0.00 90 1005.0
20240301133012 27 207 4.0 9.0 0.00 0.00 0.00 91 1005.1
20240301131521 26 198 2.0 7.0 0.00 0.00 0.00 91 1005.1
20240301130010 26 211 0.0 6.0 0.00 0.00 0.00 92 1005.1
20240301124525 26 201 0.0 4.0 0.00 0.00 0.00 92 1005.1
20240301123055 26 212 0.0 4.0 0.00 0.00 0.00 92 1005.5
20240301121550 26 247 0.0 1.0 0.00 0.00 0.00 92 1005.4
20240301120035 26 268 0.0 4.0 0.00 0.00 0.00 91 1005.3
20240301114531 27 248 5.0 9.0 0.00 0.00 0.00 90 1005.6
20240301113022 27 233 4.0 10.0 0.00 0.00 0.00 90 1005.4
20240301111521 27 263 3.0 12.0 0.00 0.00 0.00 91 1005.7
20240301110030 26 261 4.0 7.0 0.00 0.00 0.00 92 1006.1
20240301104516 26 264 3.0 7.0 0.00 0.00 0.00 92 1006.0
20240301103016 26 228 5.0 13.0 0.00 0.00 0.00 92 1006.2
20240301101515 27 209 6.0 11.0 0.00 0.00 0.00 91 1006.1
20240301100016 26 219 7.0 11.0 0.00 0.00 0.00 91 1005.9
20240301094513 27 259 8.0 9.0 0.00 0.00 0.00 90 1006.2
20240301093002 27 205 9.0 16.0 0.00 0.00 0.00 88 1006.1
20240301091501 26 172 12.0 18.0 0.00 0.00 0.00 89 1005.8
20240301090104 26 205 11.0 24.0 0.00 0.00 0.00 90 1006.2
20240301084555 25 194 8.0 21.0 0.00 0.00 0.00 90 1006.6
20240301083058 26 198 10.0 20.0 0.00 0.00 0.00 86 1006.8
20240301081554 26 223 12.0 22.0 0.00 0.00 0.00 85 1006.7
20240301080051 26 178 11.0 18.0 0.00 0.00 0.00 86 1006.9
20240301074552 26 201 13.0 20.0 0.00 0.00 0.00 87 1007.0
20240301073041 26 195 17.0 24.0 0.00 0.00 0.00 89 1007.3
20240301071539 25 230 12.0 22.0 0.00 0.00 0.00 89 1007.8
20240301070037 25 225 10.0 19.0 0.00 0.00 0.00 88 1008.1
20240301064539 26 246 9.0 15.0 0.00 0.00 0.00 87 1008.0
20240301063033 26 198 8.0 19.0 0.00 0.00 0.00 85 1007.9
20240301061531 27 178 12.0 26.0 0.00 0.00 0.00 81 1007.5
20240301060114 26 182 17.0 24.0 0.00 0.00 0.00 83 1007.6
20240301054526 26 202 11.0 20.0 0.00 0.00 0.00 81 1008.1
20240301053028 27 212 10.0 17.0 0.00 0.00 0.00 76 1008.1
20240301051512 27 215 15.0 23.0 0.00 0.00 0.00 75 1008.4
20240301050010 29 223 9.0 19.0 0.00 0.00 0.00 66 1008.2
20240301044510 28 188 13.0 21.0 0.00 0.00 0.00 66 1007.8
20240301043006 28 181 13.0 22.0 0.00 0.00 0.00 66 1008.2
20240301041503 27 217 10.0 18.0 0.00 0.00 0.00 70 1008.5
20240301040003 27 238 5.0 14.0 0.00 0.00 0.00 69 1009.0
20240301034612 26 221 6.0 10.0 0.00 0.00 0.00 71 1008.9
20240301033057 27 226 5.0 11.0 0.00 0.00 0.00 71 1009.2
20240301031543 27 224 8.0 14.0 0.00 0.00 0.00 73 1009.2
20240301030042 26 238 6.0 9.0 0.00 0.00 0.00 74 1009.3
20240301024540 27 215 9.0 15.0 0.00 0.00 0.00 76 1009.3
20240301023038 27 262 6.0 14.0 0.00 0.00 0.00 78 1009.9
20240301021536 27 245 10.0 17.0 0.00 0.00 0.00 79 1010.0
20240301020033 27 227 7.0 14.0 0.00 0.00 0.00 77 1010.2
20240301014551 28 219 13.0 20.0 0.00 0.00 0.00 74 1010.1
20240301013029 28 200 12.0 20.0 0.00 0.00 0.00 74 1010.2
20240301011515 28 224 16.0 27.0 0.00 0.00 0.00 74 1010.3
20240301010012 28 187 18.0 26.0 0.00 0.00 0.00 74 1010.3
20240301004514 28 187 17.0 24.0 0.00 0.00 0.00 74 1010.4
20240301003009 28 186 12.0 22.0 0.00 0.00 0.00 74 1010.6
20240301001508 29 211 14.0 24.0 0.00 0.00 0.00 75 1010.6
20240301000007 29 235 12.0 24.0 0.00 0.00 0.00 75 1011.0
20240229234506 29 219 19.0 30.0 0.00 0.00 0.00 74 1011.0
20240229233015 30 211 17.0 31.0 0.00 0.00 0.00 71 1011.3
20240229231559 30 212 18.0 29.0 0.00 0.00 0.00 71 1011.2
20240229230052 30 196 22.0 30.0 0.00 0.00 0.00 71 1011.2
20240229224609 31 199 22.0 30.0 0.00 0.00 0.00 69 1011.2
20240229223051 31 205 17.0 25.0 0.00 0.00 0.00 71 1011.2
20240229221550 31 234 15.0 26.0 0.00 0.00 0.00 69 1011.2
20240229220048 31 218 13.0 26.0 0.00 0.00 0.00 70 1011.4
20240229214547 30 204 17.0 32.0 0.00 0.00 0.00 70 1011.5
20240229213047 31 242 17.0 27.0 0.00 0.00 0.00 68 1011.8
20240229211533 31 223 17.0 28.0 0.00 0.00 0.00 67 1012.0
20240229210031 31 265 13.0 27.0 0.00 0.00 0.00 66 1012.3
20240229204535 30 246 16.0 33.0 0.00 0.00 0.00 65 1012.6
20240229203032 31 238 20.0 31.0 0.00 0.00 0.00 65 1012.9
20240229201526 31 242 14.0 26.0 0.00 0.00 0.00 64 1013.3
20240229200026 31 238 15.0 26.0 0.00 0.00 0.00 63 1013.7
20240229194522 31 225 16.0 25.0 0.00 0.00 0.00 62 1014.3
20240229193020 30 196 14.0 29.0 0.00 0.00 0.00 64 1014.5
20240229191506 30 184 20.0 31.0 0.00 0.00 0.00 63 1014.8
20240229190005 31 219 12.0 26.0 0.00 0.00 0.00 63 1015.1
20240229184505 30 226 13.0 23.0 0.00 0.00 0.00 64 1015.2
20240229183002 31 196 13.0 23.0 0.00 0.00 0.00 63 1015.3
20240229181503 30 242 11.0 22.0 0.00 0.00 0.00 65 1015.2
20240229180101 29 263 10.0 18.0 0.00 0.00 0.00 66 1015.6